Time;durP1;ratioP1;P1;durP2;ratioP2;P2;SDS_P1;SDS_P2;PMS_P1;PMS_P2;Temp;Humidity;BMP_temperature;BMP_pressure;BME280_temperature;BME280_humidity;BME280_pressure;Samples;Min_cycle;Max_cycle;Signal;HPM_P1;HPM_P2
2021/07/08 00:00:26;;;;;;;11.63;7.13;;;;;;;;;;5040284;28;20071;-58
2021/07/08 00:02:56;;;;;;;9.55;6.57;;;;;;;;;;5040202;28;20119;-58
2021/07/08 00:05:26;;;;;;;11.57;6.32;;;;;;;;;;5050638;28;20045;-58
2021/07/08 00:07:57;;;;;;;12.75;7.05;;;;;;;;;;5055502;28;20056;-59
2021/07/08 00:10:29;;;;;;;10.27;6.93;;;;;;;;;;5049120;28;20069;-59
2021/07/08 00:12:57;;;;;;;11.45;6.80;;;;;;;;;;5054857;28;20076;-60
2021/07/08 00:15:28;;;;;;;9.38;6.40;;;;;;;;;;5052312;28;20061;-59
2021/07/08 00:17:58;;;;;;;14.10;6.78;;;;;;;;;;5054541;28;20049;-59
2021/07/08 00:20:27;;;;;;;12.15;6.80;;;;;;;;;;5054744;28;20069;-60
2021/07/08 00:22:56;;;;;;;7.68;6.20;;;;;;;;;;5054895;28;20049;-60
2021/07/08 00:25:25;;;;;;;8.38;5.75;;;;;;;;;;5059302;28;20049;-60
2021/07/08 00:27:54;;;;;;;8.02;6.00;;;;;;;;;;5046998;28;20053;-60
2021/07/08 00:30:23;;;;;;;11.98;6.25;;;;;;;;;;5057594;28;20148;-60
2021/07/08 00:32:51;;;;;;;9.10;6.38;;;;;;;;;;5047022;28;20096;-60
2021/07/08 00:35:24;;;;;;;11.25;7.35;;;;;;;;;;5052398;28;20481;-60
2021/07/08 00:37:53;;;;;;;8.98;6.32;;;;;;;;;;5052407;28;20067;-60
2021/07/08 00:40:22;;;;;;;11.63;7.30;;;;;;;;;;5070686;28;20129;-60
2021/07/08 00:42:51;;;;;;;8.00;5.47;;;;;;;;;;5053211;28;20049;-59
2021/07/08 00:45:22;;;;;;;9.70;6.28;;;;;;;;;;5051106;28;20052;-59
2021/07/08 00:47:51;;;;;;;6.95;5.68;;;;;;;;;;5051806;28;20049;-60
2021/07/08 00:50:21;;;;;;;9.20;6.47;;;;;;;;;;5072269;28;20544;-60
2021/07/08 00:52:51;;;;;;;12.68;6.30;;;;;;;;;;5052709;28;20068;-59
2021/07/08 00:55:20;;;;;;;10.38;6.07;;;;;;;;;;5052297;28;20118;-58
2021/07/08 00:57:55;;;;;;;8.23;5.75;;;;;;;;;;5053138;28;20049;-60
2021/07/08 01:00:25;;;;;;;7.75;5.45;;;;;;;;;;5045063;28;20061;-60
2021/07/08 01:02:54;;;;;;;10.88;6.28;;;;;;;;;;5047975;28;20072;-60
2021/07/08 01:05:24;;;;;;;13.48;6.22;;;;;;;;;;5046274;28;20072;-59
2021/07/08 01:07:54;;;;;;;11.25;6.18;;;;;;;;;;5051635;28;20041;-60
2021/07/08 01:10:23;;;;;;;9.43;6.20;;;;;;;;;;5052603;28;20092;-59
2021/07/08 01:12:51;;;;;;;8.65;6.70;;;;;;;;;;5049826;28;20049;-60
2021/07/08 01:15:21;;;;;;;7.35;5.57;;;;;;;;;;5051539;28;20044;-59
2021/07/08 01:17:50;;;;;;;8.27;6.43;;;;;;;;;;5053002;28;20049;-59
2021/07/08 01:20:20;;;;;;;9.40;6.03;;;;;;;;;;5048793;28;20040;-58
2021/07/08 01:22:57;;;;;;;8.05;5.93;;;;;;;;;;5047682;28;20557;-59
2021/07/08 01:25:26;;;;;;;6.65;5.30;;;;;;;;;;5040350;28;20437;-58
2021/07/08 01:27:55;;;;;;;7.93;5.00;;;;;;;;;;5035993;28;20572;-58
2021/07/08 01:30:24;;;;;;;6.18;5.35;;;;;;;;;;5040340;28;20489;-58
2021/07/08 01:32:52;;;;;;;7.03;5.72;;;;;;;;;;5041931;28;20147;-58
2021/07/08 01:35:22;;;;;;;9.18;5.00;;;;;;;;;;5043263;28;20114;-59
2021/07/08 01:37:51;;;;;;;9.73;5.13;;;;;;;;;;5042583;28;20059;-58
2021/07/08 01:40:20;;;;;;;10.18;5.05;;;;;;;;;;5033614;28;20080;-58
2021/07/08 01:42:48;;;;;;;7.55;4.72;;;;;;;;;;5034310;28;20057;-59
2021/07/08 01:45:18;;;;;;;7.63;4.32;;;;;;;;;;5043500;28;20115;-58
2021/07/08 01:47:47;;;;;;;7.15;4.60;;;;;;;;;;5051018;28;20465;-59
2021/07/08 01:50:17;;;;;;;6.43;4.57;;;;;;;;;;5070830;28;20101;-58
2021/07/08 01:52:45;;;;;;;8.13;4.72;;;;;;;;;;5041812;28;20087;-58
2021/07/08 01:55:16;;;;;;;21.90;5.05;;;;;;;;;;5048746;28;20118;-58
2021/07/08 01:57:45;;;;;;;8.30;5.10;;;;;;;;;;5065463;28;20113;-58
2021/07/08 02:00:15;;;;;;;8.60;4.85;;;;;;;;;;5055840;28;20073;-58
2021/07/08 02:02:43;;;;;;;6.13;4.60;;;;;;;;;;5049245;28;20131;-59
2021/07/08 02:05:12;;;;;;;6.13;4.45;;;;;;;;;;5054760;28;20056;-58
2021/07/08 02:07:40;;;;;;;10.30;4.80;;;;;;;;;;5049929;28;20132;-58
2021/07/08 02:10:09;;;;;;;4.85;4.15;;;;;;;;;;5035849;28;20053;-58
2021/07/08 02:12:38;;;;;;;6.40;4.18;;;;;;;;;;5052515;28;20051;-58
2021/07/08 02:15:08;;;;;;;9.50;4.75;;;;;;;;;;5048683;28;20139;-59
2021/07/08 02:17:36;;;;;;;6.15;3.95;;;;;;;;;;5060377;28;20059;-58
2021/07/08 02:20:06;;;;;;;6.63;4.10;;;;;;;;;;5040845;28;20136;-58
2021/07/08 02:22:34;;;;;;;6.50;4.40;;;;;;;;;;5058418;28;20120;-58
2021/07/08 02:25:03;;;;;;;4.70;3.53;;;;;;;;;;5051609;28;20142;-58
2021/07/08 02:27:31;;;;;;;5.93;3.90;;;;;;;;;;5043206;28;20045;-58
2021/07/08 02:30:01;;;;;;;4.70;4.00;;;;;;;;;;5048300;28;20116;-58
2021/07/08 02:32:29;;;;;;;9.07;4.40;;;;;;;;;;5042231;28;20120;-58
2021/07/08 02:34:58;;;;;;;4.50;3.67;;;;;;;;;;5047052;28;20544;-59
2021/07/08 02:37:26;;;;;;;7.53;4.07;;;;;;;;;;5044597;28;20127;-58
2021/07/08 02:39:54;;;;;;;5.05;3.97;;;;;;;;;;5047043;28;20409;-58
2021/07/08 02:42:23;;;;;;;7.25;3.85;;;;;;;;;;5047935;28;20057;-59
2021/07/08 02:44:52;;;;;;;4.25;3.85;;;;;;;;;;5048046;28;20559;-59
2021/07/08 02:47:22;;;;;;;5.15;3.72;;;;;;;;;;5048260;28;20041;-58
2021/07/08 02:49:50;;;;;;;4.40;3.92;;;;;;;;;;5047582;28;20059;-58
2021/07/08 02:52:19;;;;;;;4.57;3.90;;;;;;;;;;5049049;28;20551;-58
2021/07/08 02:54:47;;;;;;;10.00;3.90;;;;;;;;;;5051516;28;20053;-58
2021/07/08 02:57:15;;;;;;;6.55;4.30;;;;;;;;;;5048090;28;20475;-58
2021/07/08 02:59:43;;;;;;;5.75;3.95;;;;;;;;;;5043643;28;20175;-58
2021/07/08 03:02:11;;;;;;;4.97;4.35;;;;;;;;;;5034705;28;20128;-59
2021/07/08 03:04:41;;;;;;;5.93;3.95;;;;;;;;;;5050520;28;20075;-58
2021/07/08 03:07:10;;;;;;;7.90;4.00;;;;;;;;;;5050194;28;20045;-58
2021/07/08 03:09:38;;;;;;;4.80;4.00;;;;;;;;;;5048358;28;20700;-58
2021/07/08 03:12:07;;;;;;;8.50;3.78;;;;;;;;;;5042988;28;20056;-58
2021/07/08 03:14:35;;;;;;;4.43;4.03;;;;;;;;;;5054579;28;20131;-58
2021/07/08 03:17:04;;;;;;;4.82;4.28;;;;;;;;;;5051432;28;20056;-58
2021/07/08 03:19:32;;;;;;;5.22;4.00;;;;;;;;;;5043833;28;20045;-58
2021/07/08 03:22:02;;;;;;;4.63;3.60;;;;;;;;;;5051994;28;20136;-58
2021/07/08 03:24:30;;;;;;;8.52;4.43;;;;;;;;;;5049665;28;20136;-58
2021/07/08 03:26:58;;;;;;;5.45;3.90;;;;;;;;;;5047940;28;20049;-58
2021/07/08 03:29:27;;;;;;;4.45;3.78;;;;;;;;;;5052507;28;20052;-59
2021/07/08 03:31:56;;;;;;;6.95;3.92;;;;;;;;;;5052485;28;20135;-58
2021/07/08 03:34:24;;;;;;;6.63;4.50;;;;;;;;;;5050229;28;20523;-58
2021/07/08 03:36:52;;;;;;;5.82;4.43;;;;;;;;;;5053785;28;20045;-58
2021/07/08 03:39:23;;;;;;;9.85;4.32;;;;;;;;;;5051948;28;20525;-58
2021/07/08 03:41:51;;;;;;;5.22;4.38;;;;;;;;;;5052749;28;20140;-58
2021/07/08 03:44:19;;;;;;;5.43;3.83;;;;;;;;;;5053229;28;20147;-58
2021/07/08 03:46:47;;;;;;;7.50;4.30;;;;;;;;;;5052261;28;20064;-59
2021/07/08 03:49:16;;;;;;;8.82;3.88;;;;;;;;;;5058755;28;20087;-58
2021/07/08 03:51:44;;;;;;;7.55;3.90;;;;;;;;;;5042132;28;20140;-59
2021/07/08 03:54:13;;;;;;;9.10;4.03;;;;;;;;;;5045631;28;20068;-59
2021/07/08 03:56:43;;;;;;;5.40;4.03;;;;;;;;;;5050282;28;20460;-58
2021/07/08 03:59:11;;;;;;;9.52;3.90;;;;;;;;;;5053066;28;20063;-58
2021/07/08 04:01:41;;;;;;;5.93;4.63;;;;;;;;;;5051997;28;20388;-58
2021/07/08 04:04:10;;;;;;;13.90;4.05;;;;;;;;;;5050612;28;20397;-58
2021/07/08 04:06:39;;;;;;;3.70;3.40;;;;;;;;;;5046029;28;20131;-58
2021/07/08 04:09:07;;;;;;;5.25;3.92;;;;;;;;;;5046766;28;20071;-59
2021/07/08 04:11:35;;;;;;;6.78;5.05;;;;;;;;;;5058131;28;20509;-59
2021/07/08 04:14:05;;;;;;;5.88;4.03;;;;;;;;;;5061564;28;20048;-58
2021/07/08 04:16:33;;;;;;;6.25;3.70;;;;;;;;;;5062654;28;20041;-59
2021/07/08 04:19:02;;;;;;;5.75;3.40;;;;;;;;;;5051172;28;20052;-58
2021/07/08 04:21:30;;;;;;;10.75;3.80;;;;;;;;;;5051993;28;20093;-59
2021/07/08 04:23:58;;;;;;;5.57;3.28;;;;;;;;;;5048613;28;20061;-58
2021/07/08 04:26:27;;;;;;;5.93;3.78;;;;;;;;;;5030770;28;20133;-58
2021/07/08 04:28:56;;;;;;;6.90;3.50;;;;;;;;;;5042204;28;20057;-58
2021/07/08 04:31:25;;;;;;;5.55;4.00;;;;;;;;;;5047702;28;20068;-59
2021/07/08 04:33:54;;;;;;;6.28;4.13;;;;;;;;;;5048386;28;20469;-58
2021/07/08 04:36:22;;;;;;;4.57;3.55;;;;;;;;;;5045035;28;20184;-58
2021/07/08 04:38:53;;;;;;;4.55;3.50;;;;;;;;;;5044590;28;20064;-59
2021/07/08 04:41:22;;;;;;;6.05;3.35;;;;;;;;;;5047123;28;20060;-59
2021/07/08 04:43:50;;;;;;;9.35;4.35;;;;;;;;;;5043197;28;20547;-58
2021/07/08 04:46:18;;;;;;;5.05;3.80;;;;;;;;;;5045480;28;20487;-59
2021/07/08 04:48:49;;;;;;;5.38;4.05;;;;;;;;;;5039670;28;20053;-59
2021/07/08 04:51:17;;;;;;;6.22;4.13;;;;;;;;;;5044164;28;20500;-59
2021/07/08 04:53:45;;;;;;;6.60;4.05;;;;;;;;;;5048633;28;20063;-59
2021/07/08 04:56:14;;;;;;;9.85;4.75;;;;;;;;;;5051032;28;20531;-59
2021/07/08 04:58:43;;;;;;;5.80;4.57;;;;;;;;;;5041977;28;20052;-59
2021/07/08 05:01:11;;;;;;;9.50;4.90;;;;;;;;;;5045783;28;20481;-59
2021/07/08 05:03:39;;;;;;;5.82;4.15;;;;;;;;;;5042641;28;20045;-58
2021/07/08 05:06:09;;;;;;;6.78;5.53;;;;;;;;;;5046633;28;20088;-58
2021/07/08 05:08:40;;;;;;;8.50;5.43;;;;;;;;;;5041026;28;21457;-58
2021/07/08 05:11:09;;;;;;;6.72;5.07;;;;;;;;;;5038854;28;20128;-59
2021/07/08 05:13:37;;;;;;;9.45;6.00;;;;;;;;;;5039603;28;20461;-59
2021/07/08 05:16:06;;;;;;;7.95;5.80;;;;;;;;;;5036419;28;20049;-59
2021/07/08 05:18:34;;;;;;;6.13;5.07;;;;;;;;;;5037795;28;20052;-58
2021/07/08 05:21:03;;;;;;;12.13;6.80;;;;;;;;;;5042191;28;20049;-59
2021/07/08 05:23:33;;;;;;;12.70;5.95;;;;;;;;;;5043980;28;20049;-59
2021/07/08 05:26:02;;;;;;;8.23;6.35;;;;;;;;;;5046153;28;20049;-59
2021/07/08 05:28:31;;;;;;;9.98;7.28;;;;;;;;;;5046823;28;20040;-59
2021/07/08 05:31:00;;;;;;;10.70;6.65;;;;;;;;;;5049848;28;20049;-59
2021/07/08 05:33:29;;;;;;;10.98;6.93;;;;;;;;;;5045012;28;20242;-59
2021/07/08 05:35:57;;;;;;;10.20;6.85;;;;;;;;;;5041243;28;20162;-59
2021/07/08 05:38:25;;;;;;;11.40;7.75;;;;;;;;;;5039974;28;20055;-59
2021/07/08 05:40:55;;;;;;;13.15;7.57;;;;;;;;;;5051283;28;20272;-59
2021/07/08 05:43:23;;;;;;;14.80;8.20;;;;;;;;;;5050698;28;20071;-58
2021/07/08 05:45:51;;;;;;;11.27;8.13;;;;;;;;;;5042184;28;20294;-58
2021/07/08 05:48:20;;;;;;;11.68;9.05;;;;;;;;;;5045222;28;20083;-59
2021/07/08 05:50:48;;;;;;;9.93;7.78;;;;;;;;;;5039388;28;20465;-61
2021/07/08 05:53:19;;;;;;;11.77;8.32;;;;;;;;;;5030439;28;20135;-59
2021/07/08 05:55:47;;;;;;;9.77;7.40;;;;;;;;;;5046232;28;20140;-60
2021/07/08 05:58:17;;;;;;;11.07;8.40;;;;;;;;;;5045745;28;20131;-60
2021/07/08 06:00:47;;;;;;;15.57;9.30;;;;;;;;;;5043966;28;20049;-60
2021/07/08 06:03:15;;;;;;;12.73;9.73;;;;;;;;;;5051115;28;20069;-60
2021/07/08 06:05:45;;;;;;;13.98;9.30;;;;;;;;;;5055547;28;20075;-60
2021/07/08 06:08:13;;;;;;;14.38;9.57;;;;;;;;;;5051622;28;20064;-60
2021/07/08 06:10:42;;;;;;;14.20;9.80;;;;;;;;;;5052339;28;20063;-60
2021/07/08 06:13:10;;;;;;;12.73;9.38;;;;;;;;;;5045281;28;20040;-60
2021/07/08 06:15:41;;;;;;;13.98;10.25;;;;;;;;;;5045250;28;20476;-60
2021/07/08 06:18:10;;;;;;;12.20;9.90;;;;;;;;;;5045385;28;20045;-61
2021/07/08 06:20:38;;;;;;;18.70;10.27;;;;;;;;;;5045551;28;20051;-62
2021/07/08 06:23:07;;;;;;;11.82;9.65;;;;;;;;;;5042240;28;20079;-61
2021/07/08 06:25:35;;;;;;;13.57;10.18;;;;;;;;;;5048262;28;20049;-61
2021/07/08 06:28:03;;;;;;;14.52;10.98;;;;;;;;;;5051555;28;20212;-60
2021/07/08 06:30:31;;;;;;;15.05;12.57;;;;;;;;;;5045913;28;20045;-61
2021/07/08 06:33:01;;;;;;;18.90;11.55;;;;;;;;;;5047328;28;20045;-61
2021/07/08 06:35:29;;;;;;;16.90;10.88;;;;;;;;;;5047319;28;20084;-61
2021/07/08 06:37:58;;;;;;;17.85;12.75;;;;;;;;;;5046527;28;20136;-60
2021/07/08 06:40:26;;;;;;;19.92;12.80;;;;;;;;;;5042193;28;20511;-66
2021/07/08 06:42:57;;;;;;;22.27;14.70;;;;;;;;;;5041026;28;20080;-65
2021/07/08 06:45:25;;;;;;;16.52;12.40;;;;;;;;;;5042181;28;20536;-65
2021/07/08 06:48:01;;;;;;;16.30;11.82;;;;;;;;;;5042260;28;20094;-65
2021/07/08 06:50:33;;;;;;;16.52;12.95;;;;;;;;;;5041012;28;20508;-66
2021/07/08 06:53:02;;;;;;;20.35;12.60;;;;;;;;;;5044093;28;20064;-66
2021/07/08 06:55:34;;;;;;;16.27;12.55;;;;;;;;;;5042645;28;20067;-66
2021/07/08 06:58:04;;;;;;;20.98;14.48;;;;;;;;;;5045264;28;20089;-66
2021/07/08 07:00:34;;;;;;;18.90;13.90;;;;;;;;;;5045125;28;20519;-66
2021/07/08 07:03:03;;;;;;;23.27;14.27;;;;;;;;;;5044163;28;20460;-65
2021/07/08 07:05:33;;;;;;;20.48;14.02;;;;;;;;;;5042686;28;20049;-65
2021/07/08 07:08:02;;;;;;;20.02;14.45;;;;;;;;;;5044152;28;20647;-65
2021/07/08 07:10:31;;;;;;;34.00;17.90;;;;;;;;;;5061611;28;20474;-65
2021/07/08 07:13:02;;;;;;;24.83;17.55;;;;;;;;;;5050306;28;20055;-65
2021/07/08 07:15:31;;;;;;;30.23;17.50;;;;;;;;;;5042947;28;20057;-66
2021/07/08 07:18:03;;;;;;;23.80;17.65;;;;;;;;;;5041892;28;20052;-66
2021/07/08 07:20:34;;;;;;;26.58;18.20;;;;;;;;;;5045906;28;20041;-67
2021/07/08 07:23:06;;;;;;;30.20;18.15;;;;;;;;;;5033083;28;20045;-66
2021/07/08 07:25:39;;;;;;;28.67;20.48;;;;;;;;;;5045241;28;20053;-67
2021/07/08 07:28:09;;;;;;;28.88;20.90;;;;;;;;;;5045735;28;20141;-66
2021/07/08 07:30:38;;;;;;;28.48;21.05;;;;;;;;;;5048836;28;20131;-66
2021/07/08 07:33:06;;;;;;;27.85;19.75;;;;;;;;;;5046103;28;20067;-66
2021/07/08 07:35:36;;;;;;;29.52;20.40;;;;;;;;;;5044586;28;20057;-66
2021/07/08 07:38:11;;;;;;;30.92;21.52;;;;;;;;;;5038586;28;20767;-66
2021/07/08 07:40:40;;;;;;;36.35;20.45;;;;;;;;;;5039529;28;20395;-67
2021/07/08 07:43:09;;;;;;;32.60;21.05;;;;;;;;;;5045688;28;20118;-66
2021/07/08 07:45:37;;;;;;;28.88;19.95;;;;;;;;;;5043444;28;20147;-66
2021/07/08 07:48:06;;;;;;;31.90;20.75;;;;;;;;;;5049224;28;20055;-66
2021/07/08 07:50:35;;;;;;;28.33;19.90;;;;;;;;;;5046450;28;20158;-66
2021/07/08 07:53:05;;;;;;;28.67;19.65;;;;;;;;;;5049545;28;20064;-67
2021/07/08 07:55:34;;;;;;;32.60;22.77;;;;;;;;;;5046600;28;20060;-66
2021/07/08 07:58:05;;;;;;;25.95;19.30;;;;;;;;;;5044964;28;20054;-66
2021/07/08 08:00:34;;;;;;;27.10;19.58;;;;;;;;;;5051556;28;20044;-66
2021/07/08 08:03:03;;;;;;;28.55;19.63;;;;;;;;;;5056365;28;20076;-66
2021/07/08 08:05:37;;;;;;;23.50;18.60;;;;;;;;;;5048389;28;20106;-65
2021/07/08 08:10:54;;;;;;;30.23;21.52;;;;;;;;;;5042110;28;21424;-65
2021/07/08 08:13:23;;;;;;;36.85;23.27;;;;;;;;;;5055846;28;20044;-65
2021/07/08 08:15:52;;;;;;;34.25;21.45;;;;;;;;;;5050120;28;20053;-66
2021/07/08 08:18:21;;;;;;;32.30;21.98;;;;;;;;;;5046438;28;20103;-66
2021/07/08 08:20:51;;;;;;;29.58;21.65;;;;;;;;;;5043964;28;20079;-66
2021/07/08 08:23:21;;;;;;;35.25;21.23;;;;;;;;;;5039210;28;20112;-66
2021/07/08 08:25:50;;;;;;;36.50;23.95;;;;;;;;;;5040197;28;20528;-65
2021/07/08 08:28:19;;;;;;;26.17;20.35;;;;;;;;;;5050911;28;20085;-66
2021/07/08 08:30:48;;;;;;;29.38;20.67;;;;;;;;;;5050621;28;20049;-66
2021/07/08 08:33:17;;;;;;;28.58;21.05;;;;;;;;;;5051969;28;20067;-65
2021/07/08 08:35:46;;;;;;;33.47;22.13;;;;;;;;;;5047976;28;20134;-66
2021/07/08 08:38:14;;;;;;;32.95;23.20;;;;;;;;;;5048464;28;20492;-67
2021/07/08 08:40:45;;;;;;;31.02;23.27;;;;;;;;;;5042030;28;20089;-67
2021/07/08 08:43:14;;;;;;;33.03;22.70;;;;;;;;;;5059075;28;20792;-66
2021/07/08 08:45:43;;;;;;;29.88;23.55;;;;;;;;;;5050153;28;20045;-66
2021/07/08 08:48:12;;;;;;;30.95;23.60;;;;;;;;;;5056746;28;20041;-66
2021/07/08 08:50:43;;;;;;;30.20;22.25;;;;;;;;;;5056963;28;20053;-67
2021/07/08 08:53:12;;;;;;;29.77;22.05;;;;;;;;;;5065476;28;20052;-65
2021/07/08 08:55:41;;;;;;;30.70;22.63;;;;;;;;;;5048696;28;20053;-66
2021/07/08 08:58:12;;;;;;;30.70;21.83;;;;;;;;;;5044386;28;20135;-66
2021/07/08 09:00:47;;;;;;;31.58;23.77;;;;;;;;;;5049283;28;20045;-66
2021/07/08 09:03:17;;;;;;;34.58;25.35;;;;;;;;;;5045909;28;20049;-67
2021/07/08 09:05:48;;;;;;;32.40;24.92;;;;;;;;;;5042720;28;20536;-66
2021/07/08 09:08:22;;;;;;;35.22;25.70;;;;;;;;;;5047588;28;20730;-65
2021/07/08 09:10:52;;;;;;;37.88;26.83;;;;;;;;;;5043230;28;20074;-66
2021/07/08 09:13:22;;;;;;;38.35;27.60;;;;;;;;;;5043461;28;20307;-66
2021/07/08 09:15:50;;;;;;;44.63;28.55;;;;;;;;;;5042066;28;20048;-66
2021/07/08 09:18:19;;;;;;;37.58;28.38;;;;;;;;;;5042894;28;20064;-66
2021/07/08 09:20:47;;;;;;;36.42;27.77;;;;;;;;;;5046650;28;20103;-66
2021/07/08 09:23:18;;;;;;;38.80;28.35;;;;;;;;;;5046277;28;20229;-65
2021/07/08 09:25:47;;;;;;;37.03;28.15;;;;;;;;;;5041145;28;20081;-65
2021/07/08 09:28:19;;;;;;;36.65;28.92;;;;;;;;;;5048207;28;20075;-65
2021/07/08 09:30:56;;;;;;;39.78;29.95;;;;;;;;;;5043425;28;20111;-65
2021/07/08 09:33:29;;;;;;;44.80;30.65;;;;;;;;;;5043824;28;20048;-65
2021/07/08 09:36:05;;;;;;;41.72;29.50;;;;;;;;;;5047501;28;20057;-65
2021/07/08 09:38:33;;;;;;;43.67;29.98;;;;;;;;;;5046399;28;20126;-66
2021/07/08 09:41:06;;;;;;;41.70;29.63;;;;;;;;;;5040483;28;20184;-66
2021/07/08 09:43:37;;;;;;;42.83;28.17;;;;;;;;;;5045828;28;20128;-65
2021/07/08 09:46:08;;;;;;;40.92;29.45;;;;;;;;;;5047679;28;20087;-65
2021/07/08 09:48:37;;;;;;;50.42;33.20;;;;;;;;;;5045641;28;20112;-66
2021/07/08 09:51:05;;;;;;;45.10;28.90;;;;;;;;;;5046553;28;20048;-65
2021/07/08 09:53:48;;;;;;;41.60;28.77;;;;;;;;;;5039793;28;20079;-66
2021/07/08 09:59:06;;;;;;;38.80;29.23;;;;;;;;;;5039184;28;20413;-66
2021/07/08 10:01:36;;;;;;;37.65;27.10;;;;;;;;;;5046573;28;20056;-66
2021/07/08 10:04:05;;;;;;;38.03;28.30;;;;;;;;;;5049287;28;20049;-67
2021/07/08 10:06:34;;;;;;;36.00;26.60;;;;;;;;;;5043460;28;20564;-66
2021/07/08 10:09:02;;;;;;;37.65;28.08;;;;;;;;;;5047203;28;20057;-66
2021/07/08 10:11:31;;;;;;;38.92;29.08;;;;;;;;;;5046580;28;20156;-66
2021/07/08 10:14:02;;;;;;;34.42;26.50;;;;;;;;;;5046251;28;20052;-66
2021/07/08 10:16:32;;;;;;;33.65;25.35;;;;;;;;;;5046299;28;20171;-66
2021/07/08 10:19:04;;;;;;;35.80;27.27;;;;;;;;;;5040132;28;20041;-66
2021/07/08 10:21:33;;;;;;;31.55;25.38;;;;;;;;;;5047308;28;20045;-66
2021/07/08 10:24:02;;;;;;;33.17;24.85;;;;;;;;;;5038843;28;20049;-66
2021/07/08 10:26:31;;;;;;;33.80;24.30;;;;;;;;;;5040288;28;20274;-66
2021/07/08 10:29:00;;;;;;;34.25;24.58;;;;;;;;;;5048896;28;20108;-66
2021/07/08 10:31:29;;;;;;;31.63;24.15;;;;;;;;;;5050029;28;20333;-66
2021/07/08 10:34:08;;;;;;;33.33;24.75;;;;;;;;;;5051392;28;20051;-65
2021/07/08 10:36:37;;;;;;;30.63;23.30;;;;;;;;;;5052090;28;20475;-65
2021/07/08 10:39:07;;;;;;;34.13;25.58;;;;;;;;;;5042361;28;20048;-66
2021/07/08 10:41:52;;;;;;;32.38;24.08;;;;;;;;;;5051028;28;20053;-66
2021/07/08 10:44:39;;;;;;;33.90;25.80;;;;;;;;;;5043755;28;20055;-66
2021/07/08 10:47:08;;;;;;;31.92;24.80;;;;;;;;;;5029953;28;20076;-66
2021/07/08 10:49:39;;;;;;;30.77;24.40;;;;;;;;;;5045191;28;20053;-66
2021/07/08 10:52:11;;;;;;;31.98;23.50;;;;;;;;;;5049451;28;20350;-66
2021/07/08 10:54:48;;;;;;;34.35;23.70;;;;;;;;;;5051554;28;20053;-66
2021/07/08 10:57:31;;;;;;;35.90;26.70;;;;;;;;;;5050262;28;20401;-66
2021/07/08 11:00:00;;;;;;;30.25;23.85;;;;;;;;;;5049546;28;20429;-65
2021/07/08 11:02:43;;;;;;;32.33;24.75;;;;;;;;;;5049500;28;20049;-66
2021/07/08 11:05:13;;;;;;;35.95;27.73;;;;;;;;;;5045200;28;20064;-66
2021/07/08 11:07:49;;;;;;;34.85;27.67;;;;;;;;;;5040400;28;20076;-65
2021/07/08 11:10:32;;;;;;;38.65;27.63;;;;;;;;;;5049128;28;20059;-66
2021/07/08 11:13:16;;;;;;;33.92;26.85;;;;;;;;;;5036097;28;20049;-66
2021/07/08 11:15:54;;;;;;;33.28;26.23;;;;;;;;;;5043354;28;20061;-66
2021/07/08 11:18:32;;;;;;;39.83;28.98;;;;;;;;;;5050759;28;20077;-65
2021/07/08 11:21:03;;;;;;;37.22;26.92;;;;;;;;;;5057205;28;20045;-66
2021/07/08 11:23:38;;;;;;;30.20;25.33;;;;;;;;;;5043930;28;20526;-66
2021/07/08 11:26:08;;;;;;;33.63;24.75;;;;;;;;;;5041651;28;20461;-65
2021/07/08 11:28:37;;;;;;;34.35;26.13;;;;;;;;;;5036483;28;20585;-65
2021/07/08 11:31:06;;;;;;;34.63;27.42;;;;;;;;;;5038652;28;20084;-65
2021/07/08 11:33:37;;;;;;;30.63;25.08;;;;;;;;;;5039586;28;20049;-66
2021/07/08 11:36:12;;;;;;;33.55;24.92;;;;;;;;;;5040901;28;20042;-65
2021/07/08 11:38:43;;;;;;;32.20;24.80;;;;;;;;;;5042867;28;20056;-65
2021/07/08 11:41:13;;;;;;;32.10;23.33;;;;;;;;;;5040028;28;20547;-65
2021/07/08 11:43:50;;;;;;;30.73;24.88;;;;;;;;;;5043016;28;20084;-64
2021/07/08 11:46:19;;;;;;;35.42;24.75;;;;;;;;;;5058975;28;20493;-64
2021/07/08 11:48:48;;;;;;;39.72;25.83;;;;;;;;;;5050755;28;20072;-65
2021/07/08 11:51:20;;;;;;;33.03;25.05;;;;;;;;;;5052413;28;20052;-65
2021/07/08 11:53:50;;;;;;;32.30;23.70;;;;;;;;;;5049689;28;20049;-65
2021/07/08 11:56:19;;;;;;;34.53;24.77;;;;;;;;;;5051527;28;20119;-65
2021/07/08 11:58:48;;;;;;;34.05;26.17;;;;;;;;;;5060148;28;20562;-66
2021/07/08 12:01:19;;;;;;;36.20;26.52;;;;;;;;;;5048411;28;20496;-66
2021/07/08 12:03:49;;;;;;;35.28;24.85;;;;;;;;;;5055549;28;20053;-65
2021/07/08 12:06:22;;;;;;;36.15;25.45;;;;;;;;;;5070898;28;20101;-65
2021/07/08 12:08:53;;;;;;;38.33;24.60;;;;;;;;;;5059248;28;20048;-65
2021/07/08 12:11:27;;;;;;;34.35;25.13;;;;;;;;;;5048211;28;20536;-65
2021/07/08 12:13:57;;;;;;;33.03;24.83;;;;;;;;;;5048893;28;20499;-65
2021/07/08 12:16:30;;;;;;;32.13;24.85;;;;;;;;;;5058411;28;20037;-65
2021/07/08 12:19:00;;;;;;;33.08;25.23;;;;;;;;;;5049918;28;20048;-66
2021/07/08 12:21:31;;;;;;;36.47;25.02;;;;;;;;;;5045561;28;20379;-66
2021/07/08 12:24:01;;;;;;;30.58;22.40;;;;;;;;;;5066056;28;20049;-66
2021/07/08 12:26:32;;;;;;;34.40;24.30;;;;;;;;;;5054814;28;20166;-66
2021/07/08 12:29:13;;;;;;;31.88;23.20;;;;;;;;;;5045551;28;20048;-65
2021/07/08 12:31:42;;;;;;;35.42;25.08;;;;;;;;;;5050648;28;20079;-65
2021/07/08 12:34:15;;;;;;;35.03;25.27;;;;;;;;;;5052647;28;20655;-66
2021/07/08 12:36:45;;;;;;;33.63;23.02;;;;;;;;;;5045882;28;20091;-66
2021/07/08 12:39:16;;;;;;;30.60;21.90;;;;;;;;;;5049357;28;20048;-66
2021/07/08 12:41:46;;;;;;;27.55;17.23;;;;;;;;;;5043116;28;20061;-65
2021/07/08 12:44:15;;;;;;;22.67;15.43;;;;;;;;;;5039870;28;20056;-64
2021/07/08 12:46:43;;;;;;;16.48;11.73;;;;;;;;;;5039105;28;20076;-65
2021/07/08 12:49:12;;;;;;;10.88;7.47;;;;;;;;;;5044653;28;20053;-65
2021/07/08 12:51:41;;;;;;;10.25;7.10;;;;;;;;;;5044433;28;20092;-65
2021/07/08 12:54:12;;;;;;;8.40;7.10;;;;;;;;;;5056003;28;20500;-64
2021/07/08 12:56:40;;;;;;;8.60;5.97;;;;;;;;;;5043113;28;20053;-65
2021/07/08 12:59:09;;;;;;;6.57;4.68;;;;;;;;;;5040546;28;20089;-65
2021/07/08 13:01:37;;;;;;;8.70;3.95;;;;;;;;;;5048474;28;20402;-65
2021/07/08 13:04:06;;;;;;;6.45;2.97;;;;;;;;;;5039020;28;20556;-66
2021/07/08 13:06:34;;;;;;;7.47;2.60;;;;;;;;;;5053602;28;20054;-66
2021/07/08 13:09:05;;;;;;;4.15;2.28;;;;;;;;;;5045694;28;20447;-64
2021/07/08 13:11:35;;;;;;;4.05;2.33;;;;;;;;;;5061996;28;20045;-64
2021/07/08 13:14:24;;;;;;;4.97;2.50;;;;;;;;;;5050353;28;20210;-64
2021/07/08 13:17:02;;;;;;;4.43;2.95;;;;;;;;;;5045343;28;20843;-64
2021/07/08 13:19:31;;;;;;;5.47;3.25;;;;;;;;;;5046863;28;20064;-64
2021/07/08 13:22:09;;;;;;;4.00;3.13;;;;;;;;;;5043476;28;20083;-64
2021/07/08 13:24:38;;;;;;;6.80;3.00;;;;;;;;;;5050369;28;20098;-64
2021/07/08 13:27:08;;;;;;;4.00;2.60;;;;;;;;;;5059838;28;20496;-64
2021/07/08 13:29:37;;;;;;;5.80;3.05;;;;;;;;;;5044370;28;20471;-65
2021/07/08 13:32:18;;;;;;;5.13;2.33;;;;;;;;;;5049690;28;20134;-64
2021/07/08 13:34:48;;;;;;;5.15;2.50;;;;;;;;;;5053344;28;20059;-64
2021/07/08 13:37:20;;;;;;;5.35;2.90;;;;;;;;;;5055754;28;20059;-64
2021/07/08 13:39:49;;;;;;;5.00;3.00;;;;;;;;;;5049054;28;20552;-64
2021/07/08 13:42:24;;;;;;;4.35;2.63;;;;;;;;;;5043802;28;20045;-64
2021/07/08 13:44:57;;;;;;;7.28;2.33;;;;;;;;;;5042177;28;20063;-65
2021/07/08 13:47:26;;;;;;;3.85;2.78;;;;;;;;;;5047009;28;20329;-64
2021/07/08 13:49:57;;;;;;;5.30;2.58;;;;;;;;;;5048629;28;20080;-64
2021/07/08 13:52:25;;;;;;;3.63;2.40;;;;;;;;;;5047030;28;20052;-64
2021/07/08 13:54:54;;;;;;;4.28;2.63;;;;;;;;;;5045188;28;20157;-64
2021/07/08 13:57:24;;;;;;;7.95;3.55;;;;;;;;;;5048411;28;20041;-63
2021/07/08 14:00:00;;;;;;;5.03;2.60;;;;;;;;;;5049314;28;20045;-63
2021/07/08 14:02:29;;;;;;;6.53;3.70;;;;;;;;;;5040891;28;20379;-63
2021/07/08 14:04:57;;;;;;;5.20;2.95;;;;;;;;;;5041472;28;20045;-64
2021/07/08 14:07:26;;;;;;;6.95;2.90;;;;;;;;;;5044967;28;20055;-64
2021/07/08 14:09:55;;;;;;;4.38;2.55;;;;;;;;;;5049063;28;20049;-64
2021/07/08 14:12:24;;;;;;;6.50;3.85;;;;;;;;;;5048514;28;20045;-63
2021/07/08 14:14:53;;;;;;;4.65;2.80;;;;;;;;;;5045042;28;20060;-64
2021/07/08 14:17:21;;;;;;;4.93;3.42;;;;;;;;;;5044692;28;20091;-64
2021/07/08 14:19:50;;;;;;;4.18;2.38;;;;;;;;;;5043321;28;20505;-63
2021/07/08 14:22:18;;;;;;;5.88;2.67;;;;;;;;;;5050715;28;20091;-63
2021/07/08 14:24:47;;;;;;;4.15;2.72;;;;;;;;;;5050051;28;20056;-64
2021/07/08 14:27:15;;;;;;;4.10;2.60;;;;;;;;;;5049505;28;20183;-64
2021/07/08 14:29:45;;;;;;;5.32;2.40;;;;;;;;;;5071033;28;20120;-63
2021/07/08 14:32:14;;;;;;;4.68;2.30;;;;;;;;;;5052358;28;20056;-63
2021/07/08 14:34:42;;;;;;;6.55;1.73;;;;;;;;;;5054562;28;20051;-63
2021/07/08 14:37:11;;;;;;;3.50;1.80;;;;;;;;;;5054514;28;20050;-64
2021/07/08 14:39:39;;;;;;;3.10;1.70;;;;;;;;;;5039942;28;20056;-63
2021/07/08 14:42:13;;;;;;;2.90;1.90;;;;;;;;;;5047129;28;20057;-64
2021/07/08 14:44:47;;;;;;;3.08;1.80;;;;;;;;;;5046239;28;20065;-63
2021/07/08 14:47:18;;;;;;;3.47;1.77;;;;;;;;;;5040813;28;20113;-63
2021/07/08 14:49:47;;;;;;;2.38;1.75;;;;;;;;;;5038346;28;20045;-63
2021/07/08 14:52:15;;;;;;;3.38;1.70;;;;;;;;;;5044099;28;20106;-64